Terminal Aerodrome Forecast
Issued by NWS

Home | Current Version | Previous Version | Text Only | Print | Product List | Glossary On
Versions: 1 2 3 4 5 6 7 8 9 10 11 12 13 14 15 16
106
FTUS46 KMTR 081140
TAFOAK
TAF
KOAK 081140Z 0812/0918 10011KT 4SM -SHRA BR BKN012 OVC020
      WS020/21030KT
      TEMPO 0812/0816 3SM SHRA BR OVC008
     FM081600 13012KT 6SM -SHRA BR SCT010 BKN012 OVC020
      TEMPO 0816/0820 4SM SHRA BKN010 OVC015
     FM082100 18008KT 6SM BR VCSH BKN018 OVC025
     FM090500 18006KT 5SM BR VCSH SCT008 BKN010 OVC015
     FM091500 15008KT 4SM -SHRA BR BKN007 OVC012=

USA.gov is the U.S. government's official web portal to all federal, state and local government web resources and services.